sensor_id;sensor_type;location;lat;lon;timestamp;P1;durP1;ratioP1;P2;durP2;ratioP2
17844;SDS011;9047;53.486;10.218;2023-08-30T00:00:34;6.00;;;3.50;;
17844;SDS011;9047;53.486;10.218;2023-08-30T00:03:02;4.85;;;3.70;;
17844;SDS011;9047;53.486;10.218;2023-08-30T00:05:33;5.18;;;3.80;;
17844;SDS011;9047;53.486;10.218;2023-08-30T00:08:04;6.10;;;3.92;;
17844;SDS011;9047;53.486;10.218;2023-08-30T00:10:32;7.55;;;3.80;;
17844;SDS011;9047;53.486;10.218;2023-08-30T00:12:59;4.25;;;3.53;;
17844;SDS011;9047;53.486;10.218;2023-08-30T00:15:29;6.25;;;3.60;;
17844;SDS011;9047;53.486;10.218;2023-08-30T00:17:56;5.45;;;3.60;;
17844;SDS011;9047;53.486;10.218;2023-08-30T00:20:24;4.78;;;3.58;;
17844;SDS011;9047;53.486;10.218;2023-08-30T00:22:52;4.75;;;3.70;;
17844;SDS011;9047;53.486;10.218;2023-08-30T00:25:18;5.00;;;3.50;;
17844;SDS011;9047;53.486;10.218;2023-08-30T00:27:52;6.03;;;3.70;;
17844;SDS011;9047;53.486;10.218;2023-08-30T00:30:22;7.63;;;4.35;;
17844;SDS011;9047;53.486;10.218;2023-08-30T00:32:49;6.00;;;3.90;;
17844;SDS011;9047;53.486;10.218;2023-08-30T00:35:19;4.88;;;3.53;;
17844;SDS011;9047;53.486;10.218;2023-08-30T00:37:47;6.40;;;3.78;;
17844;SDS011;9047;53.486;10.218;2023-08-30T00:40:16;4.55;;;3.53;;
17844;SDS011;9047;53.486;10.218;2023-08-30T00:42:44;5.60;;;4.03;;
17844;SDS011;9047;53.486;10.218;2023-08-30T00:45:11;5.45;;;3.90;;
17844;SDS011;9047;53.486;10.218;2023-08-30T00:47:38;6.88;;;4.00;;
17844;SDS011;9047;53.486;10.218;2023-08-30T00:50:08;5.80;;;4.18;;
17844;SDS011;9047;53.486;10.218;2023-08-30T00:52:44;5.57;;;4.20;;
17844;SDS011;9047;53.486;10.218;2023-08-30T00:58:45;6.10;;;3.92;;
17844;SDS011;9047;53.486;10.218;2023-08-30T01:01:13;6.38;;;4.50;;
17844;SDS011;9047;53.486;10.218;2023-08-30T01:03:41;6.72;;;4.32;;
17844;SDS011;9047;53.486;10.218;2023-08-30T01:06:08;4.88;;;3.95;;
17844;SDS011;9047;53.486;10.218;2023-08-30T01:08:37;5.38;;;4.18;;
17844;SDS011;9047;53.486;10.218;2023-08-30T01:11:05;5.03;;;3.88;;
17844;SDS011;9047;53.486;10.218;2023-08-30T01:13:39;5.50;;;3.97;;
17844;SDS011;9047;53.486;10.218;2023-08-30T01:16:11;5.22;;;4.18;;
17844;SDS011;9047;53.486;10.218;2023-08-30T01:18:38;7.75;;;4.35;;
17844;SDS011;9047;53.486;10.218;2023-08-30T01:21:09;5.82;;;4.10;;
17844;SDS011;9047;53.486;10.218;2023-08-30T01:23:55;5.88;;;4.50;;
17844;SDS011;9047;53.486;10.218;2023-08-30T01:26:26;5.78;;;4.18;;
17844;SDS011;9047;53.486;10.218;2023-08-30T01:29:04;5.90;;;4.60;;
17844;SDS011;9047;53.486;10.218;2023-08-30T01:31:31;6.75;;;4.65;;
17844;SDS011;9047;53.486;10.218;2023-08-30T01:34:00;5.38;;;4.53;;
17844;SDS011;9047;53.486;10.218;2023-08-30T01:36:29;5.18;;;4.50;;
17844;SDS011;9047;53.486;10.218;2023-08-30T01:38:56;6.75;;;4.28;;
17844;SDS011;9047;53.486;10.218;2023-08-30T01:41:24;7.32;;;4.72;;
17844;SDS011;9047;53.486;10.218;2023-08-30T01:43:53;7.57;;;4.60;;
17844;SDS011;9047;53.486;10.218;2023-08-30T01:46:24;5.95;;;4.25;;
17844;SDS011;9047;53.486;10.218;2023-08-30T01:48:53;5.53;;;4.53;;
17844;SDS011;9047;53.486;10.218;2023-08-30T01:51:21;8.38;;;5.10;;
17844;SDS011;9047;53.486;10.218;2023-08-30T01:53:51;6.60;;;4.63;;
17844;SDS011;9047;53.486;10.218;2023-08-30T01:56:20;6.18;;;4.75;;
17844;SDS011;9047;53.486;10.218;2023-08-30T01:58:47;6.75;;;4.60;;
17844;SDS011;9047;53.486;10.218;2023-08-30T02:01:14;6.13;;;4.53;;
17844;SDS011;9047;53.486;10.218;2023-08-30T02:03:44;6.72;;;5.20;;
17844;SDS011;9047;53.486;10.218;2023-08-30T02:06:11;6.18;;;4.90;;
17844;SDS011;9047;53.486;10.218;2023-08-30T02:08:44;7.35;;;5.40;;
17844;SDS011;9047;53.486;10.218;2023-08-30T02:11:17;8.57;;;5.40;;
17844;SDS011;9047;53.486;10.218;2023-08-30T02:13:48;8.85;;;5.47;;
17844;SDS011;9047;53.486;10.218;2023-08-30T02:16:15;7.13;;;5.05;;
17844;SDS011;9047;53.486;10.218;2023-08-30T02:18:45;8.32;;;5.60;;
17844;SDS011;9047;53.486;10.218;2023-08-30T02:21:12;7.43;;;5.95;;
17844;SDS011;9047;53.486;10.218;2023-08-30T02:23:40;7.20;;;5.60;;
17844;SDS011;9047;53.486;10.218;2023-08-30T02:26:07;6.72;;;6.03;;
17844;SDS011;9047;53.486;10.218;2023-08-30T02:28:35;8.25;;;6.03;;
17844;SDS011;9047;53.486;10.218;2023-08-30T02:31:03;7.22;;;6.05;;
17844;SDS011;9047;53.486;10.218;2023-08-30T02:33:31;9.30;;;6.28;;
17844;SDS011;9047;53.486;10.218;2023-08-30T02:36:02;8.90;;;6.50;;
17844;SDS011;9047;53.486;10.218;2023-08-30T02:38:30;7.50;;;5.60;;
17844;SDS011;9047;53.486;10.218;2023-08-30T02:40:57;8.15;;;6.00;;
17844;SDS011;9047;53.486;10.218;2023-08-30T02:43:27;6.80;;;5.55;;
17844;SDS011;9047;53.486;10.218;2023-08-30T02:45:55;6.60;;;5.50;;
17844;SDS011;9047;53.486;10.218;2023-08-30T02:48:22;6.80;;;5.10;;
17844;SDS011;9047;53.486;10.218;2023-08-30T02:50:49;7.70;;;6.32;;
17844;SDS011;9047;53.486;10.218;2023-08-30T02:53:17;9.70;;;7.28;;
17844;SDS011;9047;53.486;10.218;2023-08-30T02:55:46;9.77;;;6.78;;
17844;SDS011;9047;53.486;10.218;2023-08-30T02:58:15;9.02;;;6.53;;
17844;SDS011;9047;53.486;10.218;2023-08-30T03:00:42;8.63;;;6.45;;
17844;SDS011;9047;53.486;10.218;2023-08-30T03:03:09;9.75;;;7.15;;
17844;SDS011;9047;53.486;10.218;2023-08-30T03:05:37;9.90;;;7.97;;
17844;SDS011;9047;53.486;10.218;2023-08-30T03:08:04;14.68;;;8.73;;
17844;SDS011;9047;53.486;10.218;2023-08-30T03:10:32;9.90;;;7.90;;
17844;SDS011;9047;53.486;10.218;2023-08-30T03:12:59;10.88;;;8.52;;
17844;SDS011;9047;53.486;10.218;2023-08-30T03:15:26;13.63;;;9.57;;
17844;SDS011;9047;53.486;10.218;2023-08-30T03:17:56;12.38;;;8.90;;
17844;SDS011;9047;53.486;10.218;2023-08-30T03:20:27;11.13;;;8.68;;
17844;SDS011;9047;53.486;10.218;2023-08-30T03:22:55;12.38;;;8.95;;
17844;SDS011;9047;53.486;10.218;2023-08-30T03:25:23;13.65;;;10.80;;
17844;SDS011;9047;53.486;10.218;2023-08-30T03:27:51;16.77;;;11.10;;
17844;SDS011;9047;53.486;10.218;2023-08-30T03:30:18;14.73;;;11.07;;
17844;SDS011;9047;53.486;10.218;2023-08-30T03:32:48;16.58;;;11.50;;
17844;SDS011;9047;53.486;10.218;2023-08-30T03:35:17;15.13;;;11.32;;
17844;SDS011;9047;53.486;10.218;2023-08-30T03:37:46;16.65;;;11.45;;
17844;SDS011;9047;53.486;10.218;2023-08-30T03:40:15;14.38;;;11.07;;
17844;SDS011;9047;53.486;10.218;2023-08-30T03:42:42;17.15;;;10.95;;
17844;SDS011;9047;53.486;10.218;2023-08-30T03:45:11;14.93;;;11.30;;
17844;SDS011;9047;53.486;10.218;2023-08-30T03:47:38;13.93;;;11.07;;
17844;SDS011;9047;53.486;10.218;2023-08-30T03:50:05;17.55;;;11.05;;
17844;SDS011;9047;53.486;10.218;2023-08-30T03:52:34;15.63;;;10.75;;
17844;SDS011;9047;53.486;10.218;2023-08-30T03:55:01;16.13;;;11.73;;
17844;SDS011;9047;53.486;10.218;2023-08-30T03:57:28;17.17;;;11.00;;
17844;SDS011;9047;53.486;10.218;2023-08-30T03:59:55;13.65;;;10.52;;
17844;SDS011;9047;53.486;10.218;2023-08-30T04:02:23;14.48;;;11.88;;
17844;SDS011;9047;53.486;10.218;2023-08-30T04:04:50;15.68;;;11.38;;
17844;SDS011;9047;53.486;10.218;2023-08-30T04:07:19;16.02;;;11.85;;
17844;SDS011;9047;53.486;10.218;2023-08-30T04:09:47;16.63;;;11.15;;
17844;SDS011;9047;53.486;10.218;2023-08-30T04:12:14;15.65;;;11.50;;
17844;SDS011;9047;53.486;10.218;2023-08-30T04:14:41;15.70;;;11.45;;
17844;SDS011;9047;53.486;10.218;2023-08-30T04:17:13;13.60;;;10.77;;
17844;SDS011;9047;53.486;10.218;2023-08-30T04:19:41;14.65;;;10.05;;
17844;SDS011;9047;53.486;10.218;2023-08-30T04:22:08;14.98;;;10.93;;
17844;SDS011;9047;53.486;10.218;2023-08-30T04:24:35;13.07;;;9.77;;
17844;SDS011;9047;53.486;10.218;2023-08-30T04:27:02;12.35;;;10.00;;
17844;SDS011;9047;53.486;10.218;2023-08-30T04:29:28;15.15;;;10.27;;
17844;SDS011;9047;53.486;10.218;2023-08-30T04:31:55;14.68;;;10.70;;
17844;SDS011;9047;53.486;10.218;2023-08-30T04:34:23;12.60;;;9.18;;
17844;SDS011;9047;53.486;10.218;2023-08-30T04:36:51;15.52;;;11.27;;
17844;SDS011;9047;53.486;10.218;2023-08-30T04:39:18;13.07;;;9.77;;
17844;SDS011;9047;53.486;10.218;2023-08-30T04:41:45;12.68;;;9.75;;
17844;SDS011;9047;53.486;10.218;2023-08-30T04:44:12;10.80;;;9.25;;
17844;SDS011;9047;53.486;10.218;2023-08-30T04:46:38;11.75;;;9.27;;
17844;SDS011;9047;53.486;10.218;2023-08-30T04:49:05;13.45;;;9.60;;
17844;SDS011;9047;53.486;10.218;2023-08-30T04:51:32;13.45;;;9.95;;
17844;SDS011;9047;53.486;10.218;2023-08-30T04:54:03;12.57;;;9.85;;
17844;SDS011;9047;53.486;10.218;2023-08-30T04:56:30;13.85;;;9.27;;
17844;SDS011;9047;53.486;10.218;2023-08-30T04:58:56;14.07;;;9.55;;
17844;SDS011;9047;53.486;10.218;2023-08-30T05:01:23;12.15;;;9.82;;
17844;SDS011;9047;53.486;10.218;2023-08-30T05:03:50;11.52;;;8.95;;
17844;SDS011;9047;53.486;10.218;2023-08-30T05:06:17;9.50;;;8.10;;
17844;SDS011;9047;53.486;10.218;2023-08-30T05:08:44;11.65;;;8.77;;
17844;SDS011;9047;53.486;10.218;2023-08-30T05:11:12;9.75;;;8.25;;
17844;SDS011;9047;53.486;10.218;2023-08-30T05:13:39;12.18;;;10.02;;
17844;SDS011;9047;53.486;10.218;2023-08-30T05:16:05;10.88;;;8.45;;
17844;SDS011;9047;53.486;10.218;2023-08-30T05:18:32;14.95;;;8.98;;
17844;SDS011;9047;53.486;10.218;2023-08-30T05:20:59;9.65;;;7.28;;
17844;SDS011;9047;53.486;10.218;2023-08-30T05:23:28;10.68;;;8.27;;
17844;SDS011;9047;53.486;10.218;2023-08-30T05:25:55;8.98;;;7.40;;
17844;SDS011;9047;53.486;10.218;2023-08-30T05:28:23;9.05;;;7.75;;
17844;SDS011;9047;53.486;10.218;2023-08-30T05:30:50;9.65;;;8.18;;
17844;SDS011;9047;53.486;10.218;2023-08-30T05:33:16;9.80;;;7.72;;
17844;SDS011;9047;53.486;10.218;2023-08-30T05:35:43;9.23;;;7.72;;
17844;SDS011;9047;53.486;10.218;2023-08-30T05:38:10;11.02;;;8.10;;
17844;SDS011;9047;53.486;10.218;2023-08-30T05:40:36;11.05;;;7.30;;
17844;SDS011;9047;53.486;10.218;2023-08-30T05:43:07;9.63;;;7.20;;
17844;SDS011;9047;53.486;10.218;2023-08-30T05:45:34;8.32;;;6.72;;
17844;SDS011;9047;53.486;10.218;2023-08-30T05:48:02;7.32;;;6.53;;
17844;SDS011;9047;53.486;10.218;2023-08-30T05:50:29;6.82;;;5.88;;
17844;SDS011;9047;53.486;10.218;2023-08-30T05:52:58;7.45;;;6.22;;
17844;SDS011;9047;53.486;10.218;2023-08-30T05:55:24;7.57;;;5.60;;
17844;SDS011;9047;53.486;10.218;2023-08-30T05:57:51;7.43;;;5.68;;
17844;SDS011;9047;53.486;10.218;2023-08-30T06:00:21;8.07;;;5.78;;
17844;SDS011;9047;53.486;10.218;2023-08-30T06:02:52;7.45;;;5.65;;
17844;SDS011;9047;53.486;10.218;2023-08-30T06:05:19;10.60;;;6.30;;
17844;SDS011;9047;53.486;10.218;2023-08-30T06:07:47;9.98;;;6.25;;
17844;SDS011;9047;53.486;10.218;2023-08-30T06:10:14;10.27;;;6.30;;
17844;SDS011;9047;53.486;10.218;2023-08-30T06:12:41;9.13;;;5.60;;
17844;SDS011;9047;53.486;10.218;2023-08-30T06:15:08;7.90;;;5.78;;
17844;SDS011;9047;53.486;10.218;2023-08-30T06:17:36;6.45;;;5.68;;
17844;SDS011;9047;53.486;10.218;2023-08-30T06:20:04;6.65;;;5.03;;
17844;SDS011;9047;53.486;10.218;2023-08-30T06:22:32;7.57;;;5.57;;
17844;SDS011;9047;53.486;10.218;2023-08-30T06:25:01;6.57;;;5.30;;
17844;SDS011;9047;53.486;10.218;2023-08-30T06:27:31;9.35;;;4.97;;
17844;SDS011;9047;53.486;10.218;2023-08-30T06:29:59;8.73;;;4.60;;
17844;SDS011;9047;53.486;10.218;2023-08-30T06:32:28;10.13;;;4.70;;
17844;SDS011;9047;53.486;10.218;2023-08-30T06:34:55;6.15;;;4.25;;
17844;SDS011;9047;53.486;10.218;2023-08-30T06:37:23;9.20;;;5.10;;
17844;SDS011;9047;53.486;10.218;2023-08-30T06:39:50;8.57;;;4.43;;
17844;SDS011;9047;53.486;10.218;2023-08-30T06:42:16;5.78;;;4.38;;
17844;SDS011;9047;53.486;10.218;2023-08-30T06:44:43;7.10;;;4.05;;
17844;SDS011;9047;53.486;10.218;2023-08-30T06:47:11;6.55;;;4.53;;
17844;SDS011;9047;53.486;10.218;2023-08-30T06:49:38;9.50;;;4.20;;
17844;SDS011;9047;53.486;10.218;2023-08-30T06:52:05;6.97;;;4.70;;
17844;SDS011;9047;53.486;10.218;2023-08-30T06:54:34;6.75;;;3.92;;
17844;SDS011;9047;53.486;10.218;2023-08-30T06:57:01;6.10;;;4.30;;
17844;SDS011;9047;53.486;10.218;2023-08-30T06:59:31;5.00;;;4.03;;
17844;SDS011;9047;53.486;10.218;2023-08-30T07:01:58;6.05;;;4.30;;
17844;SDS011;9047;53.486;10.218;2023-08-30T07:04:25;5.03;;;3.70;;
17844;SDS011;9047;53.486;10.218;2023-08-30T07:06:52;5.32;;;3.53;;
17844;SDS011;9047;53.486;10.218;2023-08-30T07:09:21;4.53;;;3.83;;
17844;SDS011;9047;53.486;10.218;2023-08-30T07:11:55;4.45;;;3.75;;
17844;SDS011;9047;53.486;10.218;2023-08-30T07:14:21;4.80;;;3.60;;
17844;SDS011;9047;53.486;10.218;2023-08-30T07:16:48;4.95;;;3.72;;
17844;SDS011;9047;53.486;10.218;2023-08-30T07:19:15;6.32;;;4.35;;
17844;SDS011;9047;53.486;10.218;2023-08-30T07:21:45;6.05;;;4.10;;
17844;SDS011;9047;53.486;10.218;2023-08-30T07:24:11;5.18;;;3.80;;
17844;SDS011;9047;53.486;10.218;2023-08-30T07:26:38;5.43;;;4.60;;
17844;SDS011;9047;53.486;10.218;2023-08-30T07:29:08;5.03;;;4.35;;
17844;SDS011;9047;53.486;10.218;2023-08-30T07:31:35;4.70;;;4.18;;
17844;SDS011;9047;53.486;10.218;2023-08-30T07:34:02;4.75;;;4.00;;
17844;SDS011;9047;53.486;10.218;2023-08-30T07:36:31;6.35;;;4.20;;
17844;SDS011;9047;53.486;10.218;2023-08-30T07:38:58;5.10;;;4.20;;
17844;SDS011;9047;53.486;10.218;2023-08-30T07:41:24;5.38;;;4.50;;
17844;SDS011;9047;53.486;10.218;2023-08-30T07:43:51;5.85;;;4.50;;
17844;SDS011;9047;53.486;10.218;2023-08-30T07:46:19;7.18;;;4.82;;
17844;SDS011;9047;53.486;10.218;2023-08-30T07:48:46;5.40;;;4.90;;
17844;SDS011;9047;53.486;10.218;2023-08-30T07:51:13;7.20;;;5.20;;
17844;SDS011;9047;53.486;10.218;2023-08-30T07:53:40;6.40;;;4.78;;
17844;SDS011;9047;53.486;10.218;2023-08-30T07:56:07;8.68;;;5.45;;
17844;SDS011;9047;53.486;10.218;2023-08-30T07:58:33;8.05;;;6.13;;
17844;SDS011;9047;53.486;10.218;2023-08-30T08:01:00;7.15;;;5.82;;
17844;SDS011;9047;53.486;10.218;2023-08-30T08:03:29;10.32;;;6.95;;
17844;SDS011;9047;53.486;10.218;2023-08-30T08:05:57;7.40;;;6.30;;
17844;SDS011;9047;53.486;10.218;2023-08-30T08:08:24;10.65;;;6.43;;
17844;SDS011;9047;53.486;10.218;2023-08-30T08:10:51;8.80;;;6.53;;
17844;SDS011;9047;53.486;10.218;2023-08-30T08:13:18;11.70;;;6.40;;
17844;SDS011;9047;53.486;10.218;2023-08-30T08:15:44;10.50;;;6.63;;
17844;SDS011;9047;53.486;10.218;2023-08-30T08:18:11;9.55;;;7.20;;
17844;SDS011;9047;53.486;10.218;2023-08-30T08:20:39;9.48;;;6.97;;
17844;SDS011;9047;53.486;10.218;2023-08-30T08:23:06;7.78;;;6.60;;
17844;SDS011;9047;53.486;10.218;2023-08-30T08:25:33;8.98;;;6.28;;
17844;SDS011;9047;53.486;10.218;2023-08-30T08:28:00;9.32;;;5.80;;
17844;SDS011;9047;53.486;10.218;2023-08-30T08:30:28;8.68;;;6.00;;
17844;SDS011;9047;53.486;10.218;2023-08-30T08:32:55;9.05;;;7.13;;
17844;SDS011;9047;53.486;10.218;2023-08-30T08:35:22;7.50;;;6.50;;
17844;SDS011;9047;53.486;10.218;2023-08-30T08:37:50;6.80;;;6.07;;
17844;SDS011;9047;53.486;10.218;2023-08-30T08:40:17;8.98;;;6.55;;
17844;SDS011;9047;53.486;10.218;2023-08-30T08:42:44;10.90;;;7.13;;
17844;SDS011;9047;53.486;10.218;2023-08-30T08:45:16;11.23;;;7.53;;
17844;SDS011;9047;53.486;10.218;2023-08-30T08:47:44;10.02;;;7.35;;
17844;SDS011;9047;53.486;10.218;2023-08-30T08:50:11;9.18;;;7.15;;
17844;SDS011;9047;53.486;10.218;2023-08-30T08:52:39;8.95;;;7.22;;
17844;SDS011;9047;53.486;10.218;2023-08-30T08:55:08;9.43;;;6.80;;
17844;SDS011;9047;53.486;10.218;2023-08-30T08:57:35;9.73;;;6.20;;
17844;SDS011;9047;53.486;10.218;2023-08-30T09:00:04;9.55;;;7.90;;
17844;SDS011;9047;53.486;10.218;2023-08-30T09:02:32;12.07;;;7.22;;
17844;SDS011;9047;53.486;10.218;2023-08-30T09:04:59;6.80;;;5.97;;
17844;SDS011;9047;53.486;10.218;2023-08-30T09:07:27;9.38;;;6.18;;
17844;SDS011;9047;53.486;10.218;2023-08-30T09:09:55;9.77;;;7.47;;
17844;SDS011;9047;53.486;10.218;2023-08-30T09:12:23;8.95;;;6.60;;
17844;SDS011;9047;53.486;10.218;2023-08-30T09:14:52;11.43;;;7.07;;
17844;SDS011;9047;53.486;10.218;2023-08-30T09:17:20;9.05;;;6.78;;
17844;SDS011;9047;53.486;10.218;2023-08-30T09:19:47;9.35;;;7.65;;
17844;SDS011;9047;53.486;10.218;2023-08-30T09:22:14;9.27;;;6.57;;
17844;SDS011;9047;53.486;10.218;2023-08-30T09:24:41;9.60;;;6.88;;
17844;SDS011;9047;53.486;10.218;2023-08-30T09:27:08;9.55;;;5.95;;
17844;SDS011;9047;53.486;10.218;2023-08-30T09:29:36;10.20;;;6.80;;
17844;SDS011;9047;53.486;10.218;2023-08-30T09:32:03;10.25;;;7.18;;
17844;SDS011;9047;53.486;10.218;2023-08-30T09:34:30;9.60;;;7.40;;
17844;SDS011;9047;53.486;10.218;2023-08-30T09:36:57;12.63;;;7.82;;
17844;SDS011;9047;53.486;10.218;2023-08-30T09:39:26;12.77;;;7.75;;
17844;SDS011;9047;53.486;10.218;2023-08-30T09:41:55;10.63;;;7.72;;
17844;SDS011;9047;53.486;10.218;2023-08-30T09:44:22;8.10;;;5.53;;
17844;SDS011;9047;53.486;10.218;2023-08-30T09:46:51;6.15;;;5.10;;
17844;SDS011;9047;53.486;10.218;2023-08-30T09:49:19;7.40;;;5.00;;
17844;SDS011;9047;53.486;10.218;2023-08-30T09:51:47;10.35;;;5.95;;
17844;SDS011;9047;53.486;10.218;2023-08-30T09:54:15;6.18;;;4.85;;
17844;SDS011;9047;53.486;10.218;2023-08-30T09:56:43;7.32;;;5.57;;
17844;SDS011;9047;53.486;10.218;2023-08-30T09:59:10;7.72;;;5.78;;
17844;SDS011;9047;53.486;10.218;2023-08-30T10:01:38;9.77;;;6.90;;
17844;SDS011;9047;53.486;10.218;2023-08-30T10:04:07;8.23;;;6.32;;
17844;SDS011;9047;53.486;10.218;2023-08-30T10:06:35;9.77;;;5.90;;
17844;SDS011;9047;53.486;10.218;2023-08-30T10:09:03;10.38;;;7.18;;
17844;SDS011;9047;53.486;10.218;2023-08-30T10:11:32;8.38;;;6.38;;
17844;SDS011;9047;53.486;10.218;2023-08-30T10:14:01;9.65;;;6.35;;
17844;SDS011;9047;53.486;10.218;2023-08-30T10:16:31;7.32;;;6.22;;
17844;SDS011;9047;53.486;10.218;2023-08-30T10:19:08;10.25;;;6.25;;
17844;SDS011;9047;53.486;10.218;2023-08-30T10:21:37;6.95;;;5.03;;
17844;SDS011;9047;53.486;10.218;2023-08-30T10:24:05;6.43;;;5.13;;
17844;SDS011;9047;53.486;10.218;2023-08-30T10:26:35;7.28;;;4.53;;
17844;SDS011;9047;53.486;10.218;2023-08-30T10:29:04;6.50;;;5.28;;
17844;SDS011;9047;53.486;10.218;2023-08-30T10:31:33;7.68;;;4.70;;
17844;SDS011;9047;53.486;10.218;2023-08-30T10:34:00;4.78;;;4.00;;
17844;SDS011;9047;53.486;10.218;2023-08-30T10:36:28;12.25;;;4.80;;
17844;SDS011;9047;53.486;10.218;2023-08-30T10:38:55;6.70;;;4.20;;
17844;SDS011;9047;53.486;10.218;2023-08-30T10:41:25;4.88;;;3.42;;
17844;SDS011;9047;53.486;10.218;2023-08-30T10:43:54;5.50;;;4.25;;
17844;SDS011;9047;53.486;10.218;2023-08-30T10:46:31;5.45;;;4.07;;
17844;SDS011;9047;53.486;10.218;2023-08-30T10:49:08;5.13;;;3.97;;
17844;SDS011;9047;53.486;10.218;2023-08-30T10:51:37;6.47;;;3.40;;
17844;SDS011;9047;53.486;10.218;2023-08-30T10:54:11;5.45;;;3.28;;
17844;SDS011;9047;53.486;10.218;2023-08-30T10:56:48;9.05;;;3.80;;
17844;SDS011;9047;53.486;10.218;2023-08-30T10:59:20;8.25;;;3.78;;
17844;SDS011;9047;53.486;10.218;2023-08-30T11:01:50;6.88;;;3.58;;
17844;SDS011;9047;53.486;10.218;2023-08-30T11:04:18;9.57;;;4.03;;
17844;SDS011;9047;53.486;10.218;2023-08-30T11:06:48;7.75;;;3.85;;
17844;SDS011;9047;53.486;10.218;2023-08-30T11:09:16;9.00;;;3.70;;
17844;SDS011;9047;53.486;10.218;2023-08-30T11:11:44;5.15;;;3.42;;
17844;SDS011;9047;53.486;10.218;2023-08-30T11:14:12;6.95;;;3.30;;
17844;SDS011;9047;53.486;10.218;2023-08-30T11:16:39;6.03;;;3.42;;
17844;SDS011;9047;53.486;10.218;2023-08-30T11:19:07;5.18;;;3.28;;
17844;SDS011;9047;53.486;10.218;2023-08-30T11:21:36;4.57;;;3.03;;
17844;SDS011;9047;53.486;10.218;2023-08-30T11:24:05;4.55;;;3.22;;
17844;SDS011;9047;53.486;10.218;2023-08-30T11:26:34;4.68;;;3.30;;
17844;SDS011;9047;53.486;10.218;2023-08-30T11:29:04;5.35;;;3.65;;
17844;SDS011;9047;53.486;10.218;2023-08-30T11:31:32;6.03;;;3.70;;
17844;SDS011;9047;53.486;10.218;2023-08-30T11:33:59;6.43;;;4.07;;
17844;SDS011;9047;53.486;10.218;2023-08-30T11:36:27;8.45;;;3.55;;
17844;SDS011;9047;53.486;10.218;2023-08-30T11:38:54;8.48;;;3.80;;
17844;SDS011;9047;53.486;10.218;2023-08-30T11:41:23;5.88;;;3.90;;
17844;SDS011;9047;53.486;10.218;2023-08-30T11:43:51;9.43;;;4.25;;
17844;SDS011;9047;53.486;10.218;2023-08-30T11:46:18;5.55;;;3.65;;
17844;SDS011;9047;53.486;10.218;2023-08-30T11:48:46;6.05;;;4.28;;
17844;SDS011;9047;53.486;10.218;2023-08-30T11:51:14;10.45;;;4.13;;
17844;SDS011;9047;53.486;10.218;2023-08-30T11:53:42;10.90;;;3.50;;
17844;SDS011;9047;53.486;10.218;2023-08-30T11:56:09;6.15;;;3.33;;
17844;SDS011;9047;53.486;10.218;2023-08-30T11:58:39;6.45;;;3.03;;
17844;SDS011;9047;53.486;10.218;2023-08-30T12:01:06;7.97;;;3.53;;
17844;SDS011;9047;53.486;10.218;2023-08-30T12:03:34;5.15;;;2.75;;
17844;SDS011;9047;53.486;10.218;2023-08-30T12:06:01;6.30;;;3.08;;
17844;SDS011;9047;53.486;10.218;2023-08-30T12:08:28;6.20;;;2.80;;
17844;SDS011;9047;53.486;10.218;2023-08-30T12:10:56;9.93;;;3.15;;
17844;SDS011;9047;53.486;10.218;2023-08-30T12:13:24;6.53;;;2.90;;
17844;SDS011;9047;53.486;10.218;2023-08-30T12:15:53;3.85;;;3.20;;
17844;SDS011;9047;53.486;10.218;2023-08-30T12:18:21;6.70;;;3.38;;
17844;SDS011;9047;53.486;10.218;2023-08-30T12:20:52;4.65;;;2.92;;
17844;SDS011;9047;53.486;10.218;2023-08-30T12:23:20;4.72;;;2.90;;
17844;SDS011;9047;53.486;10.218;2023-08-30T12:26:01;5.18;;;2.92;;
17844;SDS011;9047;53.486;10.218;2023-08-30T12:28:30;5.45;;;2.92;;
17844;SDS011;9047;53.486;10.218;2023-08-30T12:30:59;3.58;;;2.95;;
17844;SDS011;9047;53.486;10.218;2023-08-30T12:33:26;7.13;;;3.22;;
17844;SDS011;9047;53.486;10.218;2023-08-30T12:35:54;6.20;;;3.05;;
17844;SDS011;9047;53.486;10.218;2023-08-30T12:38:22;4.70;;;2.63;;
17844;SDS011;9047;53.486;10.218;2023-08-30T12:40:49;5.80;;;3.50;;
17844;SDS011;9047;53.486;10.218;2023-08-30T12:43:17;4.32;;;3.33;;
17844;SDS011;9047;53.486;10.218;2023-08-30T12:45:46;5.90;;;3.22;;
17844;SDS011;9047;53.486;10.218;2023-08-30T12:48:16;6.40;;;3.00;;
17844;SDS011;9047;53.486;10.218;2023-08-30T12:50:45;4.65;;;2.88;;
17844;SDS011;9047;53.486;10.218;2023-08-30T12:53:14;8.35;;;3.20;;
17844;SDS011;9047;53.486;10.218;2023-08-30T12:55:42;5.07;;;3.10;;
17844;SDS011;9047;53.486;10.218;2023-08-30T12:58:17;6.75;;;3.20;;
17844;SDS011;9047;53.486;10.218;2023-08-30T13:00:44;8.32;;;3.00;;
17844;SDS011;9047;53.486;10.218;2023-08-30T13:03:11;4.95;;;3.25;;
17844;SDS011;9047;53.486;10.218;2023-08-30T13:05:40;8.73;;;3.08;;
17844;SDS011;9047;53.486;10.218;2023-08-30T13:08:08;5.53;;;3.30;;
17844;SDS011;9047;53.486;10.218;2023-08-30T13:10:35;4.50;;;2.83;;
17844;SDS011;9047;53.486;10.218;2023-08-30T13:13:03;7.88;;;3.17;;
17844;SDS011;9047;53.486;10.218;2023-08-30T13:15:30;4.93;;;3.20;;
17844;SDS011;9047;53.486;10.218;2023-08-30T13:17:57;6.55;;;3.28;;
17844;SDS011;9047;53.486;10.218;2023-08-30T13:20:24;5.03;;;3.55;;
17844;SDS011;9047;53.486;10.218;2023-08-30T13:23:02;5.85;;;3.80;;
17844;SDS011;9047;53.486;10.218;2023-08-30T13:25:29;6.60;;;3.10;;
17844;SDS011;9047;53.486;10.218;2023-08-30T13:27:56;4.03;;;3.05;;
17844;SDS011;9047;53.486;10.218;2023-08-30T13:30:23;6.63;;;3.47;;
17844;SDS011;9047;53.486;10.218;2023-08-30T13:32:50;6.97;;;3.85;;
17844;SDS011;9047;53.486;10.218;2023-08-30T13:35:17;6.43;;;3.72;;
17844;SDS011;9047;53.486;10.218;2023-08-30T13:37:44;8.07;;;3.45;;
17844;SDS011;9047;53.486;10.218;2023-08-30T13:40:12;5.43;;;3.22;;
17844;SDS011;9047;53.486;10.218;2023-08-30T13:42:39;4.75;;;2.88;;
17844;SDS011;9047;53.486;10.218;2023-08-30T13:45:07;3.75;;;2.85;;
17844;SDS011;9047;53.486;10.218;2023-08-30T13:47:35;4.30;;;3.10;;
17844;SDS011;9047;53.486;10.218;2023-08-30T13:50:02;4.47;;;3.00;;
17844;SDS011;9047;53.486;10.218;2023-08-30T13:52:30;4.68;;;3.00;;
17844;SDS011;9047;53.486;10.218;2023-08-30T13:54:58;5.85;;;3.22;;
17844;SDS011;9047;53.486;10.218;2023-08-30T13:57:26;6.80;;;3.22;;
17844;SDS011;9047;53.486;10.218;2023-08-30T13:59:53;6.50;;;3.05;;
17844;SDS011;9047;53.486;10.218;2023-08-30T14:02:20;6.00;;;2.97;;
17844;SDS011;9047;53.486;10.218;2023-08-30T14:04:47;4.30;;;3.10;;
17844;SDS011;9047;53.486;10.218;2023-08-30T14:07:14;4.43;;;2.90;;
17844;SDS011;9047;53.486;10.218;2023-08-30T14:09:41;5.43;;;2.90;;
17844;SDS011;9047;53.486;10.218;2023-08-30T14:12:09;6.65;;;3.38;;
17844;SDS011;9047;53.486;10.218;2023-08-30T14:14:37;5.68;;;3.38;;
17844;SDS011;9047;53.486;10.218;2023-08-30T14:17:04;5.18;;;3.10;;
17844;SDS011;9047;53.486;10.218;2023-08-30T14:19:33;3.90;;;2.83;;
17844;SDS011;9047;53.486;10.218;2023-08-30T14:22:00;5.50;;;2.85;;
17844;SDS011;9047;53.486;10.218;2023-08-30T14:24:29;4.63;;;3.15;;
17844;SDS011;9047;53.486;10.218;2023-08-30T14:26:56;3.78;;;3.00;;
17844;SDS011;9047;53.486;10.218;2023-08-30T14:29:23;3.65;;;3.03;;
17844;SDS011;9047;53.486;10.218;2023-08-30T14:31:52;5.82;;;2.92;;
17844;SDS011;9047;53.486;10.218;2023-08-30T14:34:19;8.07;;;3.60;;
17844;SDS011;9047;53.486;10.218;2023-08-30T14:36:46;4.97;;;2.80;;
17844;SDS011;9047;53.486;10.218;2023-08-30T14:39:13;4.20;;;2.85;;
17844;SDS011;9047;53.486;10.218;2023-08-30T14:41:40;3.78;;;2.70;;
17844;SDS011;9047;53.486;10.218;2023-08-30T14:44:10;4.25;;;3.00;;
17844;SDS011;9047;53.486;10.218;2023-08-30T14:46:37;6.10;;;3.20;;
17844;SDS011;9047;53.486;10.218;2023-08-30T14:49:06;4.32;;;3.40;;
17844;SDS011;9047;53.486;10.218;2023-08-30T14:51:33;5.60;;;2.90;;